sensor_id;sensor_type;location;lat;lon;timestamp;pressure;altitude;pressure_sealevel;temperature;humidity
40490;BME280;26196;52.302;10.572;2024-02-23T00:03:05;97466.44;;;13.59;60.67
40490;BME280;26196;52.302;10.572;2024-02-23T00:07:07;97475.81;;;13.51;60.56
40490;BME280;26196;52.302;10.572;2024-02-23T00:11:09;97490.91;;;13.59;60.85
40490;BME280;26196;52.302;10.572;2024-02-23T00:15:11;97447.97;;;13.39;60.66
40490;BME280;26196;52.302;10.572;2024-02-23T00:19:13;97492.03;;;13.56;60.71
40490;BME280;26196;52.302;10.572;2024-02-23T00:23:14;97513.06;;;13.66;60.34
40490;BME280;26196;52.302;10.572;2024-02-23T00:27:16;97491.81;;;13.39;60.97
40490;BME280;26196;52.302;10.572;2024-02-23T00:31:18;97557.75;;;13.66;60.48
40490;BME280;26196;52.302;10.572;2024-02-23T00:35:20;97559.09;;;13.61;60.35
40490;BME280;26196;52.302;10.572;2024-02-23T00:39:21;97562.00;;;13.57;59.77
40490;BME280;26196;52.302;10.572;2024-02-23T00:43:23;97587.63;;;13.65;60.52
40490;BME280;26196;52.302;10.572;2024-02-23T00:47:26;97558.50;;;13.47;60.25
40490;BME280;26196;52.302;10.572;2024-02-23T00:51:28;97543.38;;;13.40;60.55
40490;BME280;26196;52.302;10.572;2024-02-23T00:55:30;97560.94;;;13.39;60.31
40490;BME280;26196;52.302;10.572;2024-02-23T00:59:31;97565.50;;;13.37;59.91
40490;BME280;26196;52.302;10.572;2024-02-23T01:03:33;97612.63;;;13.60;59.01
40490;BME280;26196;52.302;10.572;2024-02-23T01:07:35;97578.00;;;13.24;59.82
40490;BME280;26196;52.302;10.572;2024-02-23T01:11:36;97642.56;;;13.47;57.66
40490;BME280;26196;52.302;10.572;2024-02-23T01:15:38;97633.69;;;13.39;57.53
40490;BME280;26196;52.302;10.572;2024-02-23T01:19:41;97608.03;;;13.10;57.63
40490;BME280;26196;52.302;10.572;2024-02-23T01:23:42;97679.63;;;13.44;57.44
40490;BME280;26196;52.302;10.572;2024-02-23T01:27:44;97699.00;;;13.43;57.68
40490;BME280;26196;52.302;10.572;2024-02-23T01:31:46;97685.41;;;13.38;58.23
40490;BME280;26196;52.302;10.572;2024-02-23T01:35:47;97688.47;;;13.43;58.08
40490;BME280;26196;52.302;10.572;2024-02-23T01:39:49;97651.66;;;13.01;58.09
40490;BME280;26196;52.302;10.572;2024-02-23T01:43:50;97663.31;;;13.08;58.23
40490;BME280;26196;52.302;10.572;2024-02-23T01:47:52;97738.78;;;13.39;57.84
40490;BME280;26196;52.302;10.572;2024-02-23T01:51:54;97692.59;;;13.04;57.70
40490;BME280;26196;52.302;10.572;2024-02-23T01:55:57;97751.09;;;13.38;56.85
40490;BME280;26196;52.302;10.572;2024-02-23T01:59:59;97765.44;;;13.23;55.40
40490;BME280;26196;52.302;10.572;2024-02-23T02:04:00;97789.66;;;12.94;54.35
40490;BME280;26196;52.302;10.572;2024-02-23T02:08:02;97755.78;;;12.80;53.97
40490;BME280;26196;52.302;10.572;2024-02-23T02:12:04;97764.16;;;12.74;53.68
40490;BME280;26196;52.302;10.572;2024-02-23T02:16:06;97850.72;;;13.07;52.45
40490;BME280;26196;52.302;10.572;2024-02-23T02:20:11;97869.34;;;13.04;54.02
40490;BME280;26196;52.302;10.572;2024-02-23T02:24:13;97870.28;;;13.03;53.35
40490;BME280;26196;52.302;10.572;2024-02-23T02:28:16;97843.63;;;12.64;52.59
40490;BME280;26196;52.302;10.572;2024-02-23T02:32:18;97851.47;;;12.53;54.05
40490;BME280;26196;52.302;10.572;2024-02-23T02:36:20;97930.72;;;12.81;53.44
40490;BME280;26196;52.302;10.572;2024-02-23T02:40:21;97901.47;;;12.52;54.44
40490;BME280;26196;52.302;10.572;2024-02-23T02:44:23;97931.88;;;12.54;51.54
40490;BME280;26196;52.302;10.572;2024-02-23T02:48:24;97905.50;;;12.33;52.21
40490;BME280;26196;52.302;10.572;2024-02-23T02:52:26;97912.50;;;12.33;53.20
40490;BME280;26196;52.302;10.572;2024-02-23T02:56:28;97956.66;;;12.39;51.92
40490;BME280;26196;52.302;10.572;2024-02-23T03:00:30;97952.81;;;12.32;52.56
40490;BME280;26196;52.302;10.572;2024-02-23T03:04:32;97999.81;;;12.35;51.42
40490;BME280;26196;52.302;10.572;2024-02-23T03:08:34;98033.81;;;12.47;52.51
40490;BME280;26196;52.302;10.572;2024-02-23T03:12:36;98056.16;;;12.53;50.78
40490;BME280;26196;52.302;10.572;2024-02-23T03:16:37;98057.50;;;12.35;50.87
40490;BME280;26196;52.302;10.572;2024-02-23T03:20:39;98034.16;;;12.08;50.75
40490;BME280;26196;52.302;10.572;2024-02-23T03:24:41;98064.00;;;12.18;51.06
40490;BME280;26196;52.302;10.572;2024-02-23T03:28:43;98040.28;;;11.95;52.09
40490;BME280;26196;52.302;10.572;2024-02-23T03:32:44;98035.63;;;11.99;53.33
40490;BME280;26196;52.302;10.572;2024-02-23T03:36:48;98089.44;;;12.29;54.09
40490;BME280;26196;52.302;10.572;2024-02-23T03:40:50;98047.63;;;12.14;54.17
40490;BME280;26196;52.302;10.572;2024-02-23T03:44:51;98109.91;;;12.47;54.05
40490;BME280;26196;52.302;10.572;2024-02-23T03:48:53;98119.59;;;12.47;53.90
40490;BME280;26196;52.302;10.572;2024-02-23T03:52:55;98126.72;;;12.45;54.40
40490;BME280;26196;52.302;10.572;2024-02-23T03:56:57;98143.41;;;12.44;54.62
40490;BME280;26196;52.302;10.572;2024-02-23T04:00:59;98120.59;;;12.33;54.88
40490;BME280;26196;52.302;10.572;2024-02-23T04:05:01;98112.72;;;12.33;54.36
40490;BME280;26196;52.302;10.572;2024-02-23T04:09:03;98124.03;;;12.34;54.52
40490;BME280;26196;52.302;10.572;2024-02-23T04:13:08;98150.31;;;12.45;53.46
40490;BME280;26196;52.302;10.572;2024-02-23T04:17:11;98162.72;;;12.43;54.59
40490;BME280;26196;52.302;10.572;2024-02-23T04:21:13;98175.59;;;12.46;53.75
40490;BME280;26196;52.302;10.572;2024-02-23T04:25:16;98184.94;;;12.50;53.47
40490;BME280;26196;52.302;10.572;2024-02-23T04:29:18;98143.84;;;12.14;54.47
40490;BME280;26196;52.302;10.572;2024-02-23T04:33:19;98191.56;;;12.43;54.25
40490;BME280;26196;52.302;10.572;2024-02-23T04:37:21;98218.00;;;12.53;54.47
40490;BME280;26196;52.302;10.572;2024-02-23T04:41:23;98231.72;;;12.56;54.79
40490;BME280;26196;52.302;10.572;2024-02-23T04:45:24;98209.00;;;12.44;54.43
40490;BME280;26196;52.302;10.572;2024-02-23T04:49:26;98227.53;;;12.54;53.69
40490;BME280;26196;52.302;10.572;2024-02-23T04:53:28;98191.22;;;12.23;53.45
40490;BME280;26196;52.302;10.572;2024-02-23T04:57:31;98237.44;;;12.50;54.01
40490;BME280;26196;52.302;10.572;2024-02-23T05:01:36;98186.63;;;12.14;55.10
40490;BME280;26196;52.302;10.572;2024-02-23T05:05:38;98242.56;;;12.52;54.43
40490;BME280;26196;52.302;10.572;2024-02-23T05:09:41;98179.47;;;12.16;55.58
40490;BME280;26196;52.302;10.572;2024-02-23T05:13:43;98251.16;;;12.54;55.16
40490;BME280;26196;52.302;10.572;2024-02-23T05:17:44;98215.84;;;12.34;55.54
40490;BME280;26196;52.302;10.572;2024-02-23T05:21:46;98210.09;;;12.29;55.70
40490;BME280;26196;52.302;10.572;2024-02-23T05:25:47;98201.19;;;12.18;55.85
40490;BME280;26196;52.302;10.572;2024-02-23T05:29:49;98289.97;;;12.61;55.50
40490;BME280;26196;52.302;10.572;2024-02-23T05:33:51;98230.25;;;12.28;55.45
40490;BME280;26196;52.302;10.572;2024-02-23T05:37:52;98280.22;;;12.63;56.18
40490;BME280;26196;52.302;10.572;2024-02-23T05:41:54;98236.31;;;12.29;55.99
40490;BME280;26196;52.302;10.572;2024-02-23T05:45:55;98281.59;;;12.56;55.52
40490;BME280;26196;52.302;10.572;2024-02-23T05:49:59;98251.09;;;12.30;56.00
40490;BME280;26196;52.302;10.572;2024-02-23T05:54:01;98292.28;;;12.66;55.85
40490;BME280;26196;52.302;10.572;2024-02-23T05:58:03;98261.25;;;12.47;55.63
40490;BME280;26196;52.302;10.572;2024-02-23T06:02:06;98314.00;;;12.68;55.98
40490;BME280;26196;52.302;10.572;2024-02-23T06:06:08;98295.22;;;12.61;56.05
40490;BME280;26196;52.302;10.572;2024-02-23T06:10:10;98311.16;;;12.71;56.59
40490;BME280;26196;52.302;10.572;2024-02-23T06:14:11;98308.63;;;12.69;55.36
40490;BME280;26196;52.302;10.572;2024-02-23T06:18:13;98317.47;;;12.68;55.50
40490;BME280;26196;52.302;10.572;2024-02-23T06:22:15;98251.31;;;12.26;55.70
40490;BME280;26196;52.302;10.572;2024-02-23T06:26:22;98273.88;;;12.29;55.25
40490;BME280;26196;52.302;10.572;2024-02-23T06:30:24;98350.75;;;12.68;55.52
40490;BME280;26196;52.302;10.572;2024-02-23T06:34:25;98362.00;;;12.70;55.53
40490;BME280;26196;52.302;10.572;2024-02-23T06:38:27;98366.38;;;12.69;55.71
40490;BME280;26196;52.302;10.572;2024-02-23T06:42:28;98321.69;;;12.45;55.90
40490;BME280;26196;52.302;10.572;2024-02-23T06:46:30;98361.78;;;12.73;55.65
40490;BME280;26196;52.302;10.572;2024-02-23T06:50:32;98333.91;;;12.46;55.70
40490;BME280;26196;52.302;10.572;2024-02-23T06:54:34;98385.09;;;12.78;55.60
40490;BME280;26196;52.302;10.572;2024-02-23T06:58:35;98358.44;;;12.58;56.27
40490;BME280;26196;52.302;10.572;2024-02-23T07:02:37;98382.66;;;12.75;55.60
40490;BME280;26196;52.302;10.572;2024-02-23T07:06:39;98320.66;;;12.35;56.08
40490;BME280;26196;52.302;10.572;2024-02-23T07:10:40;98313.00;;;12.32;55.97
40490;BME280;26196;52.302;10.572;2024-02-23T07:14:42;98243.06;;;11.81;55.15
40490;BME280;26196;52.302;10.572;2024-02-23T07:18:44;98402.72;;;12.76;55.38
40490;BME280;26196;52.302;10.572;2024-02-23T07:22:46;98414.28;;;12.73;55.42
40490;BME280;26196;52.302;10.572;2024-02-23T07:26:48;98435.16;;;12.75;54.92
40490;BME280;26196;52.302;10.572;2024-02-23T07:30:49;98432.88;;;12.70;54.81
40490;BME280;26196;52.302;10.572;2024-02-23T07:34:51;98430.13;;;12.72;54.74
40490;BME280;26196;52.302;10.572;2024-02-23T07:38:53;98368.75;;;12.36;55.13
40490;BME280;26196;52.302;10.572;2024-02-23T07:42:54;98394.75;;;12.39;55.45
40490;BME280;26196;52.302;10.572;2024-02-23T07:46:56;98431.28;;;12.67;54.65
40490;BME280;26196;52.302;10.572;2024-02-23T07:50:59;98441.78;;;12.67;53.79
40490;BME280;26196;52.302;10.572;2024-02-23T07:55:01;98453.22;;;12.66;54.48
40490;BME280;26196;52.302;10.572;2024-02-23T07:59:06;98419.31;;;12.38;54.31
40490;BME280;26196;52.302;10.572;2024-02-23T08:03:08;98430.66;;;12.38;54.57
40490;BME280;26196;52.302;10.572;2024-02-23T08:07:10;98494.06;;;12.70;55.26
40490;BME280;26196;52.302;10.572;2024-02-23T08:11:12;98501.81;;;12.72;54.38
40490;BME280;26196;52.302;10.572;2024-02-23T08:15:15;98509.59;;;12.74;54.12
40490;BME280;26196;52.302;10.572;2024-02-23T08:19:16;98476.41;;;12.47;54.76
40490;BME280;26196;52.302;10.572;2024-02-23T08:23:18;98525.56;;;12.70;54.06
40490;BME280;26196;52.302;10.572;2024-02-23T08:27:24;98459.59;;;12.37;54.70
40490;BME280;26196;52.302;10.572;2024-02-23T08:31:25;98503.41;;;12.62;54.26
40490;BME280;26196;52.302;10.572;2024-02-23T08:35:27;98514.31;;;12.68;54.06
40490;BME280;26196;52.302;10.572;2024-02-23T08:39:29;98508.97;;;12.70;54.46
40490;BME280;26196;52.302;10.572;2024-02-23T08:43:30;98468.63;;;12.45;54.73
40490;BME280;26196;52.302;10.572;2024-02-23T08:47:32;98451.00;;;12.35;54.87
40490;BME280;26196;52.302;10.572;2024-02-23T08:51:36;98507.72;;;12.76;53.64
40490;BME280;26196;52.302;10.572;2024-02-23T08:55:38;98511.47;;;12.72;53.86
40490;BME280;26196;52.302;10.572;2024-02-23T08:59:39;98455.44;;;12.47;53.32
40490;BME280;26196;52.302;10.572;2024-02-23T09:03:41;98468.25;;;12.52;53.22
40490;BME280;26196;52.302;10.572;2024-02-23T09:07:43;98473.56;;;12.50;52.49
40490;BME280;26196;52.302;10.572;2024-02-23T09:11:46;98490.59;;;12.57;53.29
40490;BME280;26196;52.302;10.572;2024-02-23T09:15:49;98464.03;;;12.49;54.15
40490;BME280;26196;52.302;10.572;2024-02-23T09:19:50;98538.38;;;12.75;54.22
40490;BME280;26196;52.302;10.572;2024-02-23T09:23:52;98496.03;;;12.41;55.18
40490;BME280;26196;52.302;10.572;2024-02-23T09:27:57;98546.34;;;12.74;54.76
40490;BME280;26196;52.302;10.572;2024-02-23T09:31:59;98506.19;;;12.46;54.73
40490;BME280;26196;52.302;10.572;2024-02-23T09:36:01;98554.31;;;12.72;55.10
40490;BME280;26196;52.302;10.572;2024-02-23T09:40:03;98557.28;;;12.67;54.45
40490;BME280;26196;52.302;10.572;2024-02-23T09:44:05;98502.53;;;12.36;55.11
40490;BME280;26196;52.302;10.572;2024-02-23T09:48:10;98555.19;;;12.73;54.60
40490;BME280;26196;52.302;10.572;2024-02-23T09:52:12;98547.00;;;12.64;54.90
40490;BME280;26196;52.302;10.572;2024-02-23T09:56:14;98545.50;;;12.60;54.65
40490;BME280;26196;52.302;10.572;2024-02-23T10:00:18;98580.91;;;12.67;55.50
40490;BME280;26196;52.302;10.572;2024-02-23T10:04:21;98499.25;;;12.32;55.62
40490;BME280;26196;52.302;10.572;2024-02-23T10:08:25;98557.06;;;12.70;56.40
40490;BME280;26196;52.302;10.572;2024-02-23T10:12:26;98538.75;;;12.56;55.70
40490;BME280;26196;52.302;10.572;2024-02-23T10:16:28;98488.69;;;12.34;56.20
40490;BME280;26196;52.302;10.572;2024-02-23T10:20:30;98547.69;;;12.66;55.40
40490;BME280;26196;52.302;10.572;2024-02-23T10:24:31;98481.56;;;12.36;55.32
40490;BME280;26196;52.302;10.572;2024-02-23T10:28:34;98525.13;;;12.64;55.60
40490;BME280;26196;52.302;10.572;2024-02-23T10:32:38;98515.97;;;12.44;56.75
40490;BME280;26196;52.302;10.572;2024-02-23T10:36:41;98535.94;;;12.46;55.78
40490;BME280;26196;52.302;10.572;2024-02-23T10:40:55;98547.50;;;12.57;57.05
40490;BME280;26196;52.302;10.572;2024-02-23T10:44:58;98505.16;;;12.36;56.31
40490;BME280;26196;52.302;10.572;2024-02-23T10:49:02;98501.34;;;12.27;56.85
40490;BME280;26196;52.302;10.572;2024-02-23T10:53:07;98540.47;;;12.57;56.62
40490;BME280;26196;52.302;10.572;2024-02-23T10:57:10;98565.38;;;12.64;56.60
40490;BME280;26196;52.302;10.572;2024-02-23T11:01:13;98507.97;;;12.33;56.93
40490;BME280;26196;52.302;10.572;2024-02-23T11:05:16;98556.00;;;12.60;57.17
40490;BME280;26196;52.302;10.572;2024-02-23T11:09:21;98504.19;;;12.24;56.62
40490;BME280;26196;52.302;10.572;2024-02-23T11:13:39;98516.03;;;12.30;57.75
40490;BME280;26196;52.302;10.572;2024-02-23T11:17:40;98526.03;;;12.37;57.25
40490;BME280;26196;52.302;10.572;2024-02-23T11:21:42;98532.03;;;12.39;57.63
40490;BME280;26196;52.302;10.572;2024-02-23T11:25:58;98518.28;;;12.36;57.36
40490;BME280;26196;52.302;10.572;2024-02-23T11:30:04;98585.94;;;12.70;57.96
40490;BME280;26196;52.302;10.572;2024-02-23T11:34:08;98532.22;;;12.36;57.53
40490;BME280;26196;52.302;10.572;2024-02-23T11:38:10;98561.34;;;12.59;57.52
40490;BME280;26196;52.302;10.572;2024-02-23T11:42:12;98516.50;;;12.36;57.10
40490;BME280;26196;52.302;10.572;2024-02-23T11:46:18;98562.19;;;12.59;57.51
40490;BME280;26196;52.302;10.572;2024-02-23T11:50:19;98589.31;;;12.73;57.35
40490;BME280;26196;52.302;10.572;2024-02-23T11:54:22;98581.41;;;12.60;57.47
40490;BME280;26196;52.302;10.572;2024-02-23T11:58:24;98544.53;;;12.36;56.15
40490;BME280;26196;52.302;10.572;2024-02-23T12:02:25;98593.19;;;12.67;55.15
40490;BME280;26196;52.302;10.572;2024-02-23T12:06:31;98555.75;;;12.51;55.77
40490;BME280;26196;52.302;10.572;2024-02-23T12:10:34;98591.41;;;12.67;56.39
40490;BME280;26196;52.302;10.572;2024-02-23T12:14:36;98565.34;;;12.52;54.25
40490;BME280;26196;52.302;10.572;2024-02-23T12:18:38;98600.75;;;12.72;49.95
40490;BME280;26196;52.302;10.572;2024-02-23T12:22:42;98545.22;;;12.38;50.50
40490;BME280;26196;52.302;10.572;2024-02-23T12:26:44;98563.81;;;12.35;50.13
40490;BME280;26196;52.302;10.572;2024-02-23T12:30:46;98612.50;;;12.66;47.23
40490;BME280;26196;52.302;10.572;2024-02-23T12:34:50;98624.78;;;12.65;49.11
40490;BME280;26196;52.302;10.572;2024-02-23T12:38:52;98566.84;;;12.29;48.33
40490;BME280;26196;52.302;10.572;2024-02-23T12:42:54;98584.03;;;12.33;50.78
40490;BME280;26196;52.302;10.572;2024-02-23T12:46:55;98573.56;;;12.33;50.54
40490;BME280;26196;52.302;10.572;2024-02-23T12:50:57;98593.75;;;12.45;49.93
40490;BME280;26196;52.302;10.572;2024-02-23T12:54:59;98567.66;;;12.29;50.70
40490;BME280;26196;52.302;10.572;2024-02-23T12:59:00;98605.25;;;12.57;50.26
40490;BME280;26196;52.302;10.572;2024-02-23T13:03:02;98596.63;;;12.55;49.44
40490;BME280;26196;52.302;10.572;2024-02-23T13:07:04;98553.94;;;12.25;50.44
40490;BME280;26196;52.302;10.572;2024-02-23T13:11:05;98592.41;;;12.52;52.07
40490;BME280;26196;52.302;10.572;2024-02-23T13:15:07;98609.97;;;12.64;50.85
40490;BME280;26196;52.302;10.572;2024-02-23T13:19:09;98565.69;;;12.33;47.65
40490;BME280;26196;52.302;10.572;2024-02-23T13:23:12;98596.69;;;12.53;50.20
40490;BME280;26196;52.302;10.572;2024-02-23T13:27:13;98596.13;;;12.62;49.55
40490;BME280;26196;52.302;10.572;2024-02-23T13:31:15;98598.81;;;12.61;46.48
40490;BME280;26196;52.302;10.572;2024-02-23T13:35:18;98546.97;;;12.24;46.30
40490;BME280;26196;52.302;10.572;2024-02-23T13:39:20;98602.69;;;12.55;46.16
40490;BME280;26196;52.302;10.572;2024-02-23T13:43:22;98589.03;;;12.50;46.81
40490;BME280;26196;52.302;10.572;2024-02-23T13:47:23;98573.75;;;12.30;46.79
40490;BME280;26196;52.302;10.572;2024-02-23T13:51:25;98621.28;;;12.52;47.34
40490;BME280;26196;52.302;10.572;2024-02-23T13:55:27;98615.28;;;12.50;48.42
40490;BME280;26196;52.302;10.572;2024-02-23T13:59:28;98609.50;;;12.45;47.65
40490;BME280;26196;52.302;10.572;2024-02-23T14:03:30;98596.47;;;12.43;47.75
40490;BME280;26196;52.302;10.572;2024-02-23T14:07:33;98554.03;;;12.24;46.36
40490;BME280;26196;52.302;10.572;2024-02-23T14:11:35;98604.50;;;12.55;47.24
40490;BME280;26196;52.302;10.572;2024-02-23T14:15:36;98544.56;;;12.21;48.05
40490;BME280;26196;52.302;10.572;2024-02-23T14:19:38;98555.06;;;12.21;46.21
40490;BME280;26196;52.302;10.572;2024-02-23T14:23:40;98597.00;;;12.48;50.22
40490;BME280;26196;52.302;10.572;2024-02-23T14:27:42;98551.81;;;12.18;46.86
40490;BME280;26196;52.302;10.572;2024-02-23T14:31:44;98627.28;;;12.54;46.86
40490;BME280;26196;52.302;10.572;2024-02-23T14:35:46;98554.72;;;12.13;46.25
40490;BME280;26196;52.302;10.572;2024-02-23T14:39:48;98599.63;;;12.36;47.50
40490;BME280;26196;52.302;10.572;2024-02-23T14:43:50;98569.41;;;12.16;46.32
40490;BME280;26196;52.302;10.572;2024-02-23T14:47:52;98569.41;;;12.16;46.73
40490;BME280;26196;52.302;10.572;2024-02-23T14:51:54;98581.28;;;12.21;46.56
40490;BME280;26196;52.302;10.572;2024-02-23T14:55:56;98635.81;;;12.43;45.71
40490;BME280;26196;52.302;10.572;2024-02-23T14:59:57;98579.28;;;12.12;47.20
40490;BME280;26196;52.302;10.572;2024-02-23T15:03:59;98651.28;;;12.48;46.37
40490;BME280;26196;52.302;10.572;2024-02-23T15:08:00;98611.38;;;12.16;45.39
40490;BME280;26196;52.302;10.572;2024-02-23T15:12:03;98587.50;;;12.06;47.76
40490;BME280;26196;52.302;10.572;2024-02-23T15:16:06;98628.84;;;12.30;46.19
40490;BME280;26196;52.302;10.572;2024-02-23T15:20:08;98650.00;;;12.41;46.98
40490;BME280;26196;52.302;10.572;2024-02-23T15:24:10;98665.34;;;12.47;46.49
40490;BME280;26196;52.302;10.572;2024-02-23T15:28:12;98636.50;;;12.33;44.62
40490;BME280;26196;52.302;10.572;2024-02-23T15:32:14;98603.78;;;12.11;45.41
40490;BME280;26196;52.302;10.572;2024-02-23T15:36:17;98664.88;;;12.40;45.00
40490;BME280;26196;52.302;10.572;2024-02-23T15:40:18;98672.03;;;12.38;44.43
40490;BME280;26196;52.302;10.572;2024-02-23T15:44:20;98668.66;;;12.36;43.96
40490;BME280;26196;52.302;10.572;2024-02-23T15:48:22;98619.09;;;12.04;44.32
40490;BME280;26196;52.302;10.572;2024-02-23T15:52:25;98593.38;;;11.97;45.31
40490;BME280;26196;52.302;10.572;2024-02-23T15:56:27;98664.25;;;12.37;44.92
40490;BME280;26196;52.302;10.572;2024-02-23T16:00:29;98595.03;;;11.98;45.86
40490;BME280;26196;52.302;10.572;2024-02-23T16:04:31;98612.50;;;12.12;46.74
40490;BME280;26196;52.302;10.572;2024-02-23T16:08:41;98623.00;;;12.12;46.11
40490;BME280;26196;52.302;10.572;2024-02-23T16:12:49;98660.78;;;12.36;45.69
40490;BME280;26196;52.302;10.572;2024-02-23T16:16:51;98664.44;;;12.34;44.01
40490;BME280;26196;52.302;10.572;2024-02-23T16:20:53;98662.19;;;12.27;45.15
40490;BME280;26196;52.302;10.572;2024-02-23T16:24:54;98674.28;;;12.30;43.94
40490;BME280;26196;52.302;10.572;2024-02-23T16:28:56;98625.19;;;11.91;44.06
40490;BME280;26196;52.302;10.572;2024-02-23T16:32:59;98672.34;;;12.19;46.64
40490;BME280;26196;52.302;10.572;2024-02-23T16:37:01;98634.34;;;11.98;45.64
40490;BME280;26196;52.302;10.572;2024-02-23T16:41:02;98637.38;;;11.92;44.69
40490;BME280;26196;52.302;10.572;2024-02-23T16:45:04;98692.00;;;12.26;44.74
40490;BME280;26196;52.302;10.572;2024-02-23T16:49:06;98704.28;;;12.26;46.26
40490;BME280;26196;52.302;10.572;2024-02-23T16:53:08;98650.19;;;11.96;45.79
40490;BME280;26196;52.302;10.572;2024-02-23T16:57:10;98649.53;;;11.93;47.83
40490;BME280;26196;52.302;10.572;2024-02-23T17:01:11;98665.75;;;11.99;46.76
40490;BME280;26196;52.302;10.572;2024-02-23T17:05:13;98709.41;;;12.27;46.24
40490;BME280;26196;52.302;10.572;2024-02-23T17:09:15;98664.88;;;11.99;46.18
40490;BME280;26196;52.302;10.572;2024-02-23T17:13:16;98692.56;;;12.17;45.34
40490;BME280;26196;52.302;10.572;2024-02-23T17:17:18;98612.38;;;11.72;47.06
40490;BME280;26196;52.302;10.572;2024-02-23T17:21:20;98696.50;;;12.24;47.66
40490;BME280;26196;52.302;10.572;2024-02-23T17:25:21;98634.00;;;11.90;48.08
40490;BME280;26196;52.302;10.572;2024-02-23T17:29:25;98671.34;;;12.08;47.65
40490;BME280;26196;52.302;10.572;2024-02-23T17:33:27;98710.56;;;12.23;48.68
40490;BME280;26196;52.302;10.572;2024-02-23T17:37:29;98728.53;;;12.30;48.81
40490;BME280;26196;52.302;10.572;2024-02-23T17:41:30;98717.41;;;12.26;49.02
40490;BME280;26196;52.302;10.572;2024-02-23T17:45:32;98673.69;;;11.98;48.46
40490;BME280;26196;52.302;10.572;2024-02-23T17:49:34;98691.66;;;12.04;48.60
40490;BME280;26196;52.302;10.572;2024-02-23T17:53:35;98731.72;;;12.35;48.69
40490;BME280;26196;52.302;10.572;2024-02-23T17:57:37;98723.41;;;12.28;48.84
40490;BME280;26196;52.302;10.572;2024-02-23T18:01:39;98674.72;;;11.95;46.81
40490;BME280;26196;52.302;10.572;2024-02-23T18:05:41;98688.59;;;11.97;44.93
40490;BME280;26196;52.302;10.572;2024-02-23T18:09:42;98688.22;;;11.89;46.26
40490;BME280;26196;52.302;10.572;2024-02-23T18:13:44;98731.06;;;12.17;46.69
40490;BME280;26196;52.302;10.572;2024-02-23T18:17:46;98716.19;;;12.03;44.68
40490;BME280;26196;52.302;10.572;2024-02-23T18:21:48;98753.56;;;12.07;44.23
40490;BME280;26196;52.302;10.572;2024-02-23T18:25:49;98752.91;;;12.03;46.06
40490;BME280;26196;52.302;10.572;2024-02-23T18:29:51;98755.81;;;12.13;47.18
40490;BME280;26196;52.302;10.572;2024-02-23T18:33:53;98758.69;;;12.22;49.31
40490;BME280;26196;52.302;10.572;2024-02-23T18:37:55;98737.28;;;12.16;49.34
40490;BME280;26196;52.302;10.572;2024-02-23T18:41:56;98712.75;;;12.02;50.19
40490;BME280;26196;52.302;10.572;2024-02-23T18:45:58;98707.78;;;11.98;50.91
40490;BME280;26196;52.302;10.572;2024-02-23T18:49:59;98726.84;;;12.14;50.79
40490;BME280;26196;52.302;10.572;2024-02-23T18:54:01;98750.06;;;12.35;50.67
40490;BME280;26196;52.302;10.572;2024-02-23T18:58:04;98762.72;;;12.42;50.49
40490;BME280;26196;52.302;10.572;2024-02-23T19:02:06;98768.78;;;12.43;51.08
40490;BME280;26196;52.302;10.572;2024-02-23T19:06:08;98716.56;;;12.11;50.18
40490;BME280;26196;52.302;10.572;2024-02-23T19:10:10;98726.31;;;12.23;51.00
40490;BME280;26196;52.302;10.572;2024-02-23T19:14:12;98757.19;;;12.47;51.08
40490;BME280;26196;52.302;10.572;2024-02-23T19:18:13;98726.50;;;12.20;51.58
40490;BME280;26196;52.302;10.572;2024-02-23T19:22:15;98736.69;;;12.25;51.81
40490;BME280;26196;52.302;10.572;2024-02-23T19:26:17;98795.94;;;12.56;52.06
40490;BME280;26196;52.302;10.572;2024-02-23T19:30:18;98797.84;;;12.54;51.57
40490;BME280;26196;52.302;10.572;2024-02-23T19:34:20;98768.34;;;12.36;51.09
40490;BME280;26196;52.302;10.572;2024-02-23T19:38:22;98786.97;;;12.60;51.45
40490;BME280;26196;52.302;10.572;2024-02-23T19:42:23;98728.81;;;12.25;50.96
40490;BME280;26196;52.302;10.572;2024-02-23T19:46:25;98720.50;;;12.18;52.21
40490;BME280;26196;52.302;10.572;2024-02-23T19:50:26;98781.16;;;12.55;52.28
40490;BME280;26196;52.302;10.572;2024-02-23T19:54:28;98790.53;;;12.59;51.83
40490;BME280;26196;52.302;10.572;2024-02-23T19:58:30;98785.28;;;12.59;52.75
40490;BME280;26196;52.302;10.572;2024-02-23T20:02:32;98781.72;;;12.60;51.62
40490;BME280;26196;52.302;10.572;2024-02-23T20:06:33;98724.59;;;12.22;51.41
40490;BME280;26196;52.302;10.572;2024-02-23T20:10:35;98713.53;;;12.17;52.21
40490;BME280;26196;52.302;10.572;2024-02-23T20:14:36;98721.41;;;12.17;52.01
40490;BME280;26196;52.302;10.572;2024-02-23T20:18:38;98758.22;;;12.30;51.83
40490;BME280;26196;52.302;10.572;2024-02-23T20:22:40;98790.91;;;12.53;52.36
40490;BME280;26196;52.302;10.572;2024-02-23T20:26:41;98798.03;;;12.51;52.38
40490;BME280;26196;52.302;10.572;2024-02-23T20:30:43;98787.91;;;12.45;50.57
40490;BME280;26196;52.302;10.572;2024-02-23T20:34:45;98792.34;;;12.44;50.81
40490;BME280;26196;52.302;10.572;2024-02-23T20:38:47;98751.94;;;12.33;52.18
40490;BME280;26196;52.302;10.572;2024-02-23T20:42:49;98801.19;;;12.56;51.39
40490;BME280;26196;52.302;10.572;2024-02-23T20:46:51;98799.34;;;12.58;52.69
40490;BME280;26196;52.302;10.572;2024-02-23T20:50:53;98740.34;;;12.22;52.01
40490;BME280;26196;52.302;10.572;2024-02-23T20:54:54;98777.44;;;12.45;52.15
40490;BME280;26196;52.302;10.572;2024-02-23T20:58:56;98724.25;;;12.14;51.83
40490;BME280;26196;52.302;10.572;2024-02-23T21:02:58;98787.72;;;12.48;51.99
40490;BME280;26196;52.302;10.572;2024-02-23T21:07:00;98801.41;;;12.53;51.55